^^
Meteo Knjazevac Station Historical Data
Daily Summary for March 20, 2022 Units:  Both    English   Metric
Daily Weekly Monthly Yearly Custom
  High: Low: Average:
Temperature: 50.9 °F /  10.5 °C 45.7 °F /  7.6 °C 47.6 °F /  8.7 °C
Dew Point: 50.6 °F /  10.3 °C 45.4 °F /  7.4 °C 47.3 °F /  8.5 °C
Humidity: 99% 99% 99%
Wind Speed: 12.1mph /  19.5km/h - 4.1mph /  6.6km/h
Wind Gust: 14mph /  22.5km/h - -
Wind- - SE
Pressure: 29.88 in /  1011.7 hPa 29.74 in /  1007 hPa -
Precipitation: 1.59 in /  40.39 mm    
Historical Graphs
 
 
Tabular Data for March 20, 2022
Time Temperature Dew Point Pressure Wind Wind Speed Wind Gust Humidity Rainfall Rate (Hourly) solar Conditions
00:04 46.7 °F /  8.2 °C 46.4 °F /  8 °C 29.83in /  1010hPa NE 2.1mph /  3.4km/h 3mph /  4.8km/h 99% 0.00in /  0mm 0 W/m2
00:09 46.7 °F /  8.2 °C 46.4 °F /  8 °C 29.82in /  1009.7hPa NNE 1.6mph /  2.6km/h 2mph /  3.2km/h 99% 0.00in /  0mm 0 W/m2
00:14 46.6 °F /  8.1 °C 46.3 °F /  7.9 °C 29.82in /  1009.7hPa North 0.2mph /  0.3km/h 2mph /  3.2km/h 99% 0.00in /  0mm 0 W/m2
00:19 46.6 °F /  8.1 °C 46.3 °F /  7.9 °C 29.82in /  1009.7hPa NW 2.8mph /  4.5km/h 2.9mph /  4.7km/h 99% 0.00in /  0mm 0 W/m2
00:24 46.6 °F /  8.1 °C 46.3 °F /  7.9 °C 29.82in /  1009.7hPa NNE 1.2mph /  1.9km/h 4mph /  6.4km/h 99% 0.00in /  0mm 0 W/m2
00:29 46.6 °F /  8.1 °C 46.3 °F /  7.9 °C 29.82in /  1009.7hPa NE 1.4mph /  2.3km/h 2mph /  3.2km/h 99% 0.00in /  0mm 0 W/m2
00:34 46.6 °F /  8.1 °C 46.3 °F /  7.9 °C 29.82in /  1009.7hPa NNE 1.1mph /  1.8km/h 2mph /  3.2km/h 99% 0.00in /  0mm 0 W/m2
00:39 46.6 °F /  8.1 °C 46.3 °F /  7.9 °C 29.82in /  1009.7hPa NNW 2.3mph /  3.7km/h 2mph /  3.2km/h 99% 0.00in /  0mm 0 W/m2
00:44 46.6 °F /  8.1 °C 46.3 °F /  7.9 °C 29.83in /  1010hPa West 3.4mph /  5.5km/h 3mph /  4.8km/h 99% 0.00in /  0mm 0 W/m2
00:49 46.8 °F /  8.2 °C 46.5 °F /  8.1 °C 29.83in /  1010hPa West 3.5mph /  5.6km/h 4mph /  6.4km/h 99% 0.00in /  0mm 0 W/m2
00:54 46.8 °F /  8.2 °C 46.5 °F /  8.1 °C 29.83in /  1010hPa West 4mph /  6.4km/h 4mph /  6.4km/h 99% 0.00in /  0mm 0 W/m2
00:59 46.6 °F /  8.1 °C 46.3 °F /  7.9 °C 29.84in /  1010.4hPa West 4.7mph /  7.6km/h 5mph /  8km/h 99% 0.01in /  0.25mm 0 W/m2
01:04 46.7 °F /  8.2 °C 46.4 °F /  8 °C 29.85in /  1010.7hPa West 5mph /  8km/h 6mph /  9.7km/h 99% 0.03in /  0.76mm 0 W/m2
01:09 46.8 °F /  8.2 °C 46.5 °F /  8.1 °C 29.85in /  1010.7hPa WNW 3.9mph /  6.3km/h 6mph /  9.7km/h 99% 0.04in /  1.02mm 0 W/m2
01:14 46.8 °F /  8.2 °C 46.5 °F /  8.1 °C 29.85in /  1010.7hPa NNW 5.6mph /  9km/h 5mph /  8km/h 99% 0.05in /  1.27mm 0 W/m2
01:19 46.8 °F /  8.2 °C 46.5 °F /  8.1 °C 29.84in /  1010.4hPa North 6.1mph /  9.8km/h 7mph /  11.3km/h 99% 0.05in /  1.27mm 0 W/m2
01:24 46.8 °F /  8.2 °C 46.5 °F /  8.1 °C 29.85in /  1010.7hPa North 4.5mph /  7.2km/h 7mph /  11.3km/h 99% 0.06in /  1.52mm 0 W/m2
01:29 46.8 °F /  8.2 °C 46.5 °F /  8.1 °C 29.85in /  1010.7hPa North 2.4mph /  3.9km/h 5mph /  8km/h 99% 0.07in /  1.78mm 0 W/m2
01:34 46.8 °F /  8.2 °C 46.5 °F /  8.1 °C 29.85in /  1010.7hPa NNE 4.7mph /  7.6km/h 3.1mph /  5km/h 99% 0.08in /  2.03mm 0 W/m2
01:39 46.8 °F /  8.2 °C 46.5 °F /  8.1 °C 29.84in /  1010.4hPa NE 3.3mph /  5.3km/h 7mph /  11.3km/h 99% 0.08in /  2.03mm 0 W/m2
01:44 46.8 °F /  8.2 °C 46.5 °F /  8.1 °C 29.85in /  1010.7hPa ENE 3.5mph /  5.6km/h 4mph /  6.4km/h 99% 0.09in /  2.29mm 0 W/m2
01:49 46.8 °F /  8.2 °C 46.5 °F /  8.1 °C 29.85in /  1010.7hPa ENE 4.3mph /  6.9km/h 6mph /  9.7km/h 99% 0.09in /  2.29mm 0 W/m2
01:54 46.8 °F /  8.2 °C 46.5 °F /  8.1 °C 29.85in /  1010.7hPa NNE 2.4mph /  3.9km/h 6mph /  9.7km/h 99% 0.09in /  2.29mm 0 W/m2
01:59 46.8 °F /  8.2 °C 46.5 °F /  8.1 °C 29.86in /  1011.1hPa NNE 2.5mph /  4km/h 3mph /  4.8km/h 99% 0.09in /  2.29mm 0 W/m2
02:04 46.7 °F /  8.2 °C 46.4 °F /  8 °C 29.85in /  1010.7hPa NNE 2mph /  3.2km/h 4mph /  6.4km/h 99% 0.09in /  2.29mm 0 W/m2
02:09 46.6 °F /  8.1 °C 46.3 °F /  7.9 °C 29.85in /  1010.7hPa North 1.4mph /  2.3km/h 3mph /  4.8km/h 99% 0.07in /  1.78mm 0 W/m2
02:14 46.6 °F /  8.1 °C 46.3 °F /  7.9 °C 29.84in /  1010.4hPa NNE 2.3mph /  3.7km/h 2mph /  3.2km/h 99% 0.07in /  1.78mm 0 W/m2
02:19 46.6 °F /  8.1 °C 46.3 °F /  7.9 °C 29.84in /  1010.4hPa NNE 2.5mph /  4km/h 3mph /  4.8km/h 99% 0.06in /  1.52mm 0 W/m2
02:24 46.6 °F /  8.1 °C 46.3 °F /  7.9 °C 29.84in /  1010.4hPa NNE 0.5mph /  0.8km/h 3mph /  4.8km/h 99% 0.06in /  1.52mm 0 W/m2
02:29 46.5 °F /  8.1 °C 46.2 °F /  7.9 °C 29.84in /  1010.4hPa North 1.9mph /  3.1km/h 1.6mph /  2.6km/h 99% 0.05in /  1.27mm 0 W/m2
02:34 46.5 °F /  8.1 °C 46.2 °F /  7.9 °C 29.84in /  1010.4hPa NNE 3mph /  4.8km/h 3mph /  4.8km/h 99% 0.04in /  1.02mm 0 W/m2
02:39 46.4 °F /  8 °C 46.1 °F /  7.8 °C 29.83in /  1010hPa NE 3.2mph /  5.1km/h 4mph /  6.4km/h 99% 0.03in /  0.76mm 0 W/m2
02:44 46.4 °F /  8 °C 46.1 °F /  7.8 °C 29.83in /  1010hPa NE 2.1mph /  3.4km/h 3mph /  4.8km/h 99% 0.03in /  0.76mm 0 W/m2
02:49 46.4 °F /  8 °C 46.1 °F /  7.8 °C 29.83in /  1010hPa NNE 2.3mph /  3.7km/h 2.9mph /  4.7km/h 99% 0.02in /  0.51mm 0 W/m2
02:54 46.4 °F /  8 °C 46.1 °F /  7.8 °C 29.83in /  1010hPa NNE 3.8mph /  6.1km/h 5mph /  8km/h 99% 0.02in /  0.51mm 0 W/m2
02:59 46.4 °F /  8 °C 46.1 °F /  7.8 °C 29.84in /  1010.4hPa NNE 2.6mph /  4.2km/h 5mph /  8km/h 99% 0.01in /  0.25mm 0 W/m2
03:04 46.4 °F /  8 °C 46.1 °F /  7.8 °C 29.84in /  1010.4hPa North 4.1mph /  6.6km/h 3.4mph /  5.5km/h 99% 0.01in /  0.25mm 0 W/m2
03:09 46.4 °F /  8 °C 46.1 °F /  7.8 °C 29.84in /  1010.4hPa NNW 3.5mph /  5.6km/h 5mph /  8km/h 99% 0.01in /  0.25mm 0 W/m2
03:14 46.4 °F /  8 °C 46.1 °F /  7.8 °C 29.84in /  1010.4hPa NNW 4mph /  6.4km/h 4mph /  6.4km/h 99% 0.01in /  0.25mm 0 W/m2
03:19 46.4 °F /  8 °C 46.1 °F /  7.8 °C 29.85in /  1010.7hPa NNW 2.7mph /  4.3km/h 5mph /  8km/h 99% 0.01in /  0.25mm 0 W/m2
03:24 46.5 °F /  8.1 °C 46.2 °F /  7.9 °C 29.85in /  1010.7hPa North 3.1mph /  5km/h 3mph /  4.8km/h 99% 0.01in /  0.25mm 0 W/m2
03:29 46.6 °F /  8.1 °C 46.3 °F /  7.9 °C 29.86in /  1011.1hPa NE 3.4mph /  5.5km/h 4mph /  6.4km/h 99% 0.02in /  0.51mm 0 W/m2
03:34 46.5 °F /  8.1 °C 46.2 °F /  7.9 °C 29.86in /  1011.1hPa ENE 4mph /  6.4km/h 3mph /  4.8km/h 99% 0.02in /  0.51mm 0 W/m2
03:39 46.6 °F /  8.1 °C 46.3 °F /  7.9 °C 29.86in /  1011.1hPa NE 4.1mph /  6.6km/h 5mph /  8km/h 99% 0.02in /  0.51mm 0 W/m2
03:44 46.5 °F /  8.1 °C 46.2 °F /  7.9 °C 29.86in /  1011.1hPa NNE 4.5mph /  7.2km/h 6mph /  9.7km/h 99% 0.02in /  0.51mm 0 W/m2
03:49 46.4 °F /  8 °C 46.1 °F /  7.8 °C 29.85in /  1010.7hPa North 3.7mph /  6km/h 6mph /  9.7km/h 99% 0.02in /  0.51mm 0 W/m2
03:54 46.4 °F /  8 °C 46.1 °F /  7.8 °C 29.86in /  1011.1hPa Calm   5mph /  8km/h 99% 0.02in /  0.51mm 0 W/m2
03:59 46.4 °F /  8 °C 46.1 °F /  7.8 °C 29.86in /  1011.1hPa North 0.9mph /  1.4km/h 2mph /  3.2km/h 99% 0.02in /  0.51mm 0 W/m2
04:04 46.4 °F /  8 °C 46.1 °F /  7.8 °C 29.86in /  1011.1hPa NNE 2.2mph /  3.5km/h 2mph /  3.2km/h 99% 0.02in /  0.51mm 0 W/m2
04:09 46.4 °F /  8 °C 46.1 °F /  7.8 °C 29.86in /  1011.1hPa NE 2.4mph /  3.9km/h 3mph /  4.8km/h 99% 0.02in /  0.51mm 0 W/m2
04:14 46.4 °F /  8 °C 46.1 °F /  7.8 °C 29.86in /  1011.1hPa NW 5.6mph /  9km/h 4mph /  6.4km/h 99% 0.02in /  0.51mm 0 W/m2
04:19 46.5 °F /  8.1 °C 46.2 °F /  7.9 °C 29.87in /  1011.4hPa WSW 5.7mph /  9.2km/h 7mph /  11.3km/h 99% 0.02in /  0.51mm 0 W/m2
04:24 46.6 °F /  8.1 °C 46.3 °F /  7.9 °C 29.87in /  1011.4hPa West 4.6mph /  7.4km/h 9mph /  14.5km/h 99% 0.04in /  1.02mm 0 W/m2
04:29 46.6 °F /  8.1 °C 46.3 °F /  7.9 °C 29.86in /  1011.1hPa NW 3.1mph /  5km/h 9mph /  14.5km/h 99% 0.06in /  1.52mm 0 W/m2
04:34 46.6 °F /  8.1 °C 46.3 °F /  7.9 °C 29.87in /  1011.4hPa North 3.6mph /  5.8km/h 4mph /  6.4km/h 99% 0.06in /  1.52mm 0 W/m2
04:39 46.6 °F /  8.1 °C 46.3 °F /  7.9 °C 29.86in /  1011.1hPa North 3.9mph /  6.3km/h 5mph /  8km/h 99% 0.06in /  1.52mm 0 W/m2
04:44 46.6 °F /  8.1 °C 46.3 °F /  7.9 °C 29.86in /  1011.1hPa NNE 5.8mph /  9.3km/h 6mph /  9.7km/h 99% 0.07in /  1.78mm 0 W/m2
04:49 46.6 °F /  8.1 °C 46.3 °F /  7.9 °C 29.88in /  1011.7hPa NNW 6.2mph /  10km/h 8mph /  12.9km/h 99% 0.10in /  2.54mm 0 W/m2
04:54 46.6 °F /  8.1 °C 46.3 °F /  7.9 °C 29.88in /  1011.7hPa SSW 6mph /  9.7km/h 8mph /  12.9km/h 99% 0.14in /  3.56mm 0 W/m2
04:59 46.6 °F /  8.1 °C 46.3 °F /  7.9 °C 29.87in /  1011.4hPa ESE 4mph /  6.4km/h 6mph /  9.7km/h 99% 0.17in /  4.32mm 0 W/m2
05:04 46.5 °F /  8.1 °C 46.2 °F /  7.9 °C 29.87in /  1011.4hPa ENE 3.7mph /  6km/h 6mph /  9.7km/h 99% 0.18in /  4.57mm 0 W/m2
05:09 46.4 °F /  8 °C 46.1 °F /  7.8 °C 29.87in /  1011.4hPa ENE 3.2mph /  5.1km/h 5mph /  8km/h 99% 0.20in /  5.08mm 0 W/m2
05:14 46.4 °F /  8 °C 46.1 °F /  7.8 °C 29.86in /  1011.1hPa ENE 5.3mph /  8.5km/h 5mph /  8km/h 99% 0.20in /  5.08mm 0 W/m2
05:19 46.4 °F /  8 °C 46.1 °F /  7.8 °C 29.86in /  1011.1hPa NNE 5.9mph /  9.5km/h 6mph /  9.7km/h 99% 0.21in /  5.33mm 0 W/m2
05:24 46.4 °F /  8 °C 46.1 °F /  7.8 °C 29.87in /  1011.4hPa North 2.9mph /  4.7km/h 7mph /  11.3km/h 99% 0.21in /  5.33mm 0 W/m2
05:29 46.4 °F /  8 °C 46.1 °F /  7.8 °C 29.87in /  1011.4hPa NNW 1.2mph /  1.9km/h 3mph /  4.8km/h 99% 0.18in /  4.57mm 0 W/m2
05:34 46.4 °F /  8 °C 46.1 °F /  7.8 °C 29.87in /  1011.4hPa NNW 1.7mph /  2.7km/h 2mph /  3.2km/h 99% 0.19in /  4.83mm 0 W/m2
05:39 46.4 °F /  8 °C 46.1 °F /  7.8 °C 29.87in /  1011.4hPa NNE 2.8mph /  4.5km/h 2.9mph /  4.7km/h 99% 0.20in /  5.08mm 0 W/m2
05:44 46.4 °F /  8 °C 46.1 °F /  7.8 °C 29.87in /  1011.4hPa East 4.5mph /  7.2km/h 5mph /  8km/h 99% 0.21in /  5.33mm 0 W/m2
05:49 46.4 °F /  8 °C 46.1 °F /  7.8 °C 29.86in /  1011.1hPa ENE 4mph /  6.4km/h 6mph /  9.7km/h 99% 0.21in /  5.33mm 0 W/m2
05:54 46.4 °F /  8 °C 46.1 °F /  7.8 °C 29.86in /  1011.1hPa SE 3.4mph /  5.5km/h 6mph /  9.7km/h 99% 0.20in /  5.08mm 0 W/m2
05:59 46.4 °F /  8 °C 46.1 °F /  7.8 °C 29.85in /  1010.7hPa South 2.8mph /  4.5km/h 4mph /  6.4km/h 99% 0.16in /  4.06mm 0 W/m2
06:04 46.4 °F /  8 °C 46.1 °F /  7.8 °C 29.85in /  1010.7hPa SE 4.5mph /  7.2km/h 4mph /  6.4km/h 99% 0.14in /  3.56mm 0 W/m2
06:09 46.4 °F /  8 °C 46.1 °F /  7.8 °C 29.85in /  1010.7hPa East 6.2mph /  10km/h 6mph /  9.7km/h 99% 0.13in /  3.3mm 0 W/m2
06:14 46.5 °F /  8.1 °C 46.2 °F /  7.9 °C 29.84in /  1010.4hPa East 6.1mph /  9.8km/h 7mph /  11.3km/h 99% 0.11in /  2.79mm 0 W/m2
06:19 46.5 °F /  8.1 °C 46.2 °F /  7.9 °C 29.84in /  1010.4hPa East 4.4mph /  7.1km/h 7mph /  11.3km/h 99% 0.11in /  2.79mm 0 W/m2
06:24 46.4 °F /  8 °C 46.1 °F /  7.8 °C 29.84in /  1010.4hPa ENE 2.1mph /  3.4km/h 6mph /  9.7km/h 99% 0.10in /  2.54mm 0 W/m2
06:29 46.4 °F /  8 °C 46.1 °F /  7.8 °C 29.84in /  1010.4hPa NE 2mph /  3.2km/h 2mph /  3.2km/h 99% 0.10in /  2.54mm 1 W/m2
06:34 46.4 °F /  8 °C 46.1 °F /  7.8 °C 29.84in /  1010.4hPa North 2.6mph /  4.2km/h 2.2mph /  3.5km/h 99% 0.08in /  2.03mm 1 W/m2
06:39 46.4 °F /  8 °C 46.1 °F /  7.8 °C 29.84in /  1010.4hPa NNW 3.7mph /  6km/h 4mph /  6.4km/h 99% 0.07in /  1.78mm 1 W/m2
06:44 46.4 °F /  8 °C 46.1 °F /  7.8 °C 29.83in /  1010hPa NNW 4.5mph /  7.2km/h 5mph /  8km/h 99% 0.05in /  1.27mm 2 W/m2
06:49 46.4 °F /  8 °C 46.1 °F /  7.8 °C 29.83in /  1010hPa North 4.2mph /  6.8km/h 6mph /  9.7km/h 99% 0.09in /  2.29mm 3 W/m2
06:54 46.4 °F /  8 °C 46.1 °F /  7.8 °C 29.84in /  1010.4hPa NNE 2.8mph /  4.5km/h 6mph /  9.7km/h 99% 0.07in /  1.78mm 6 W/m2
06:59 46.4 °F /  8 °C 46.1 °F /  7.8 °C 29.84in /  1010.4hPa North 3.3mph /  5.3km/h 3mph /  4.8km/h 99% 0.08in /  2.03mm 7 W/m2
07:04 46.4 °F /  8 °C 46.1 °F /  7.8 °C 29.84in /  1010.4hPa NNW 3.9mph /  6.3km/h 4mph /  6.4km/h 99% 0.08in /  2.03mm 8 W/m2
07:09 46.4 °F /  8 °C 46.1 °F /  7.8 °C 29.84in /  1010.4hPa NNW 2.7mph /  4.3km/h 6mph /  9.7km/h 99% 0.08in /  2.03mm 10 W/m2
07:14 46.4 °F /  8 °C 46.1 °F /  7.8 °C 29.83in /  1010hPa North 1mph /  1.6km/h 2mph /  3.2km/h 99% 0.08in /  2.03mm 14 W/m2
07:19 46.4 °F /  8 °C 46.1 °F /  7.8 °C 29.83in /  1010hPa NNW 1mph /  1.6km/h 2mph /  3.2km/h 99% 0.09in /  2.29mm 21 W/m2
07:24 46.4 °F /  8 °C 46.1 °F /  7.8 °C 29.83in /  1010hPa NW 1.6mph /  2.6km/h 2mph /  3.2km/h 99% 0.09in /  2.29mm 24 W/m2
07:29 46.4 °F /  8 °C 46.1 °F /  7.8 °C 29.84in /  1010.4hPa NW 3mph /  4.8km/h 2.7mph /  4.3km/h 99% 0.09in /  2.29mm 23 W/m2
07:34 46.4 °F /  8 °C 46.1 °F /  7.8 °C 29.84in /  1010.4hPa NW 4.1mph /  6.6km/h 4mph /  6.4km/h 99% 0.09in /  2.29mm 20 W/m2
07:39 46.4 °F /  8 °C 46.1 °F /  7.8 °C 29.84in /  1010.4hPa NW 2.7mph /  4.3km/h 5mph /  8km/h 99% 0.09in /  2.29mm 15 W/m2
07:44 46.5 °F /  8.1 °C 46.2 °F /  7.9 °C 29.84in /  1010.4hPa NNW 2.5mph /  4km/h 3mph /  4.8km/h 99% 0.09in /  2.29mm 15 W/m2
07:49 46.5 °F /  8.1 °C 46.2 °F /  7.9 °C 29.83in /  1010hPa NNE 2mph /  3.2km/h 3mph /  4.8km/h 99% 0.03in /  0.76mm 15 W/m2
07:54 46.6 °F /  8.1 °C 46.3 °F /  7.9 °C 29.84in /  1010.4hPa NE 1.5mph /  2.4km/h 2mph /  3.2km/h 99% 0.02in /  0.51mm 18 W/m2
07:59 46.6 °F /  8.1 °C 46.3 °F /  7.9 °C 29.84in /  1010.4hPa NNW 1.2mph /  1.9km/h 2mph /  3.2km/h 99% 0.02in /  0.51mm 22 W/m2
08:04 46.6 °F /  8.1 °C 46.3 °F /  7.9 °C 29.84in /  1010.4hPa WNW 2.9mph /  4.7km/h 2.5mph /  4km/h 99% 0.02in /  0.51mm 23 W/m2
08:09 46.6 °F /  8.1 °C 46.3 °F /  7.9 °C 29.84in /  1010.4hPa WNW 4.4mph /  7.1km/h 5mph /  8km/h 99% 0.02in /  0.51mm 24 W/m2
08:14 46.6 °F /  8.1 °C 46.3 °F /  7.9 °C 29.85in /  1010.7hPa NW 3.6mph /  5.8km/h 5mph /  8km/h 99% 0.02in /  0.51mm 23 W/m2
08:19 46.6 °F /  8.1 °C 46.3 °F /  7.9 °C 29.85in /  1010.7hPa NNW 3.3mph /  5.3km/h 4mph /  6.4km/h 99% 0.03in /  0.76mm 22 W/m2
08:24 46.6 °F /  8.1 °C 46.3 °F /  7.9 °C 29.84in /  1010.4hPa North 4.8mph /  7.7km/h 5.1mph /  8.2km/h 99% 0.02in /  0.51mm 29 W/m2
08:29 46.8 °F /  8.2 °C 46.5 °F /  8.1 °C 29.83in /  1010hPa NNE 6.1mph /  9.8km/h 6mph /  9.7km/h 99% 0.03in /  0.76mm 44 W/m2
08:34 46.8 °F /  8.2 °C 46.5 °F /  8.1 °C 29.83in /  1010hPa NNE 5.7mph /  9.2km/h 7mph /  11.3km/h 99% 0.03in /  0.76mm 57 W/m2
08:39 46.8 °F /  8.2 °C 46.5 °F /  8.1 °C 29.83in /  1010hPa NW 6.4mph /  10.3km/h 7mph /  11.3km/h 99% 0.03in /  0.76mm 57 W/m2
08:44 46.9 °F /  8.3 °C 46.6 °F /  8.1 °C 29.83in /  1010hPa WNW 4.7mph /  7.6km/h 7mph /  11.3km/h 99% 0.03in /  0.76mm 46 W/m2
08:49 46.9 °F /  8.3 °C 46.7 °F /  8.2 °C 29.83in /  1010hPa NW 3.2mph /  5.1km/h 6mph /  9.7km/h 99% 0.03in /  0.76mm 45 W/m2
08:54 46.9 °F /  8.3 °C 46.7 °F /  8.2 °C 29.84in /  1010.4hPa North 3mph /  4.8km/h 4mph /  6.4km/h 99% 0.03in /  0.76mm 38 W/m2
08:59 47 °F /  8.3 °C 46.8 °F /  8.2 °C 29.84in /  1010.4hPa North 2.4mph /  3.9km/h 3mph /  4.8km/h 99% 0.03in /  0.76mm 36 W/m2
09:04 47.1 °F /  8.4 °C 46.9 °F /  8.3 °C 29.85in /  1010.7hPa North 2.1mph /  3.4km/h 3mph /  4.8km/h 99% 0.03in /  0.76mm 50 W/m2
09:09 47.1 °F /  8.4 °C 46.9 °F /  8.3 °C 29.85in /  1010.7hPa NNE 1.8mph /  2.9km/h 2.2mph /  3.5km/h 99% 0.03in /  0.76mm 51 W/m2
09:14 47.2 °F /  8.4 °C 47 °F /  8.3 °C 29.85in /  1010.7hPa NNE 3.5mph /  5.6km/h 3.1mph /  5km/h 99% 0.03in /  0.76mm 54 W/m2
09:19 47.3 °F /  8.5 °C 47 °F /  8.3 °C 29.85in /  1010.7hPa NNE 4.6mph /  7.4km/h 5mph /  8km/h 99% 0.03in /  0.76mm 48 W/m2
09:24 47.5 °F /  8.6 °C 47.2 °F /  8.4 °C 29.85in /  1010.7hPa NNE 5.3mph /  8.5km/h 5mph /  8km/h 99% 0.02in /  0.51mm 44 W/m2
09:29 47.5 °F /  8.6 °C 47.2 °F /  8.4 °C 29.85in /  1010.7hPa NNE 6.5mph /  10.5km/h 6mph /  9.7km/h 99% 0.01in /  0.25mm 52 W/m2
09:34 47.5 °F /  8.6 °C 47.2 °F /  8.4 °C 29.85in /  1010.7hPa NNE 5.7mph /  9.2km/h 7mph /  11.3km/h 99% 0.01in /  0.25mm 42 W/m2
09:39 47.5 °F /  8.6 °C 47.2 °F /  8.4 °C 29.85in /  1010.7hPa NNE 5.1mph /  8.2km/h 6mph /  9.7km/h 99% 0.01in /  0.25mm 30 W/m2
09:44 47.5 °F /  8.6 °C 47.2 °F /  8.4 °C 29.85in /  1010.7hPa NNE 4.6mph /  7.4km/h 6mph /  9.7km/h 99% 0.01in /  0.25mm 33 W/m2
09:49 47.6 °F /  8.7 °C 47.3 °F /  8.5 °C 29.85in /  1010.7hPa NNE 4.5mph /  7.2km/h 6mph /  9.7km/h 99% 0.01in /  0.25mm 35 W/m2
09:54 47.7 °F /  8.7 °C 47.4 °F /  8.6 °C 29.85in /  1010.7hPa NNE 4.5mph /  7.2km/h 5mph /  8km/h 99% 0.01in /  0.25mm 35 W/m2
09:59 47.7 °F /  8.7 °C 47.4 °F /  8.6 °C 29.85in /  1010.7hPa NNE 5.3mph /  8.5km/h 5mph /  8km/h 99% 0.01in /  0.25mm 40 W/m2
10:04 47.7 °F /  8.7 °C 47.4 °F /  8.6 °C 29.86in /  1011.1hPa NNE 4.6mph /  7.4km/h 6mph /  9.7km/h 99% 0.02in /  0.51mm 40 W/m2
10:09 47.7 °F /  8.7 °C 47.4 °F /  8.6 °C 29.86in /  1011.1hPa NE 4.5mph /  7.2km/h 5mph /  8km/h 99% 0.02in /  0.51mm 29 W/m2
10:14 47.7 °F /  8.7 °C 47.4 °F /  8.6 °C 29.87in /  1011.4hPa NE 4.5mph /  7.2km/h 5mph /  8km/h 99% 0.02in /  0.51mm 28 W/m2
10:19 47.7 °F /  8.7 °C 47.4 °F /  8.6 °C 29.87in /  1011.4hPa NNE 3.2mph /  5.1km/h 5mph /  8km/h 99% 0.03in /  0.76mm 24 W/m2
10:24 47.7 °F /  8.7 °C 47.4 °F /  8.6 °C 29.86in /  1011.1hPa NNE 5.2mph /  8.4km/h 5mph /  8km/h 99% 0.04in /  1.02mm 35 W/m2
10:29 47.8 °F /  8.8 °C 47.5 °F /  8.6 °C 29.87in /  1011.4hPa NNE 4.5mph /  7.2km/h 6mph /  9.7km/h 99% 0.06in /  1.52mm 32 W/m2
10:34 47.8 °F /  8.8 °C 47.6 °F /  8.7 °C 29.86in /  1011.1hPa NNE 6.7mph /  10.8km/h 7mph /  11.3km/h 99% 0.09in /  2.29mm 32 W/m2
10:39 47.7 °F /  8.7 °C 47.4 °F /  8.6 °C 29.87in /  1011.4hPa NNE 3.5mph /  5.6km/h 8mph /  12.9km/h 99% 0.11in /  2.79mm 29 W/m2
10:44 47.7 °F /  8.7 °C 47.4 °F /  8.6 °C 29.87in /  1011.4hPa North 5.1mph /  8.2km/h 5mph /  8km/h 99% 0.14in /  3.56mm 29 W/m2
10:49 47.7 °F /  8.7 °C 47.4 °F /  8.6 °C 29.87in /  1011.4hPa NNW 4.1mph /  6.6km/h 6mph /  9.7km/h 99% 0.16in /  4.06mm 30 W/m2
10:54 47.7 °F /  8.7 °C 47.4 °F /  8.6 °C 29.87in /  1011.4hPa NNE 6.2mph /  10km/h 5.1mph /  8.2km/h 99% 0.18in /  4.57mm 43 W/m2
10:59 47.7 °F /  8.7 °C 47.4 °F /  8.6 °C 29.86in /  1011.1hPa NE 5.1mph /  8.2km/h 8mph /  12.9km/h 99% 0.19in /  4.83mm 45 W/m2
11:04 47.7 °F /  8.7 °C 47.4 °F /  8.6 °C 29.86in /  1011.1hPa NE 6.2mph /  10km/h 6mph /  9.7km/h 99% 0.19in /  4.83mm 46 W/m2
11:09 47.7 °F /  8.7 °C 47.4 °F /  8.6 °C 29.86in /  1011.1hPa NE 6.5mph /  10.5km/h 8mph /  12.9km/h 99% 0.19in /  4.83mm 43 W/m2
11:14 47.7 °F /  8.7 °C 47.4 °F /  8.6 °C 29.86in /  1011.1hPa NE 6.2mph /  10km/h 8mph /  12.9km/h 99% 0.19in /  4.83mm 46 W/m2
11:19 47.7 °F /  8.7 °C 47.4 °F /  8.6 °C 29.86in /  1011.1hPa NE 5.4mph /  8.7km/h 8mph /  12.9km/h 99% 0.19in /  4.83mm 49 W/m2
11:24 47.7 °F /  8.7 °C 47.4 °F /  8.6 °C 29.86in /  1011.1hPa NE 6.4mph /  10.3km/h 7mph /  11.3km/h 99% 0.19in /  4.83mm 50 W/m2
11:29 47.7 °F /  8.7 °C 47.4 °F /  8.6 °C 29.86in /  1011.1hPa NE 3.6mph /  5.8km/h 8mph /  12.9km/h 99% 0.19in /  4.83mm 38 W/m2
11:34 47.7 °F /  8.7 °C 47.3 °F /  8.5 °C 29.86in /  1011.1hPa NNE 4.8mph /  7.7km/h 6mph /  9.7km/h 99% 0.23in /  5.84mm 44 W/m2
11:39 47.6 °F /  8.7 °C 47.3 °F /  8.5 °C 29.86in /  1011.1hPa NNE 4.7mph /  7.6km/h 6mph /  9.7km/h 99% 0.22in /  5.59mm 84 W/m2
11:44 47.7 °F /  8.7 °C 47.4 °F /  8.6 °C 29.86in /  1011.1hPa NNE 5.6mph /  9km/h 7mph /  11.3km/h 99% 0.20in /  5.08mm 87 W/m2
11:49 47.7 °F /  8.7 °C 47.4 °F /  8.6 °C 29.86in /  1011.1hPa NNE 2.7mph /  4.3km/h 8mph /  12.9km/h 99% 0.18in /  4.57mm 61 W/m2
11:54 47.7 °F /  8.7 °C 47.4 °F /  8.6 °C 29.86in /  1011.1hPa NNE 3.2mph /  5.1km/h 4mph /  6.4km/h 99% 0.16in /  4.06mm 41 W/m2
11:59 47.7 °F /  8.7 °C 47.4 °F /  8.6 °C 29.86in /  1011.1hPa NNE 3.7mph /  6km/h 4mph /  6.4km/h 99% 0.16in /  4.06mm 35 W/m2
12:04 47.7 °F /  8.7 °C 47.5 °F /  8.6 °C 29.85in /  1010.7hPa NNE 4.4mph /  7.1km/h 6mph /  9.7km/h 99% 0.17in /  4.32mm 32 W/m2
12:09 47.8 °F /  8.8 °C 47.6 °F /  8.7 °C 29.85in /  1010.7hPa NE 4.8mph /  7.7km/h 7mph /  11.3km/h 99% 0.18in /  4.57mm 29 W/m2
12:14 47.7 °F /  8.7 °C 47.4 °F /  8.6 °C 29.85in /  1010.7hPa NNE 4.4mph /  7.1km/h 7mph /  11.3km/h 99% 0.18in /  4.57mm 30 W/m2
12:19 47.7 °F /  8.7 °C 47.4 °F /  8.6 °C 29.85in /  1010.7hPa North 4mph /  6.4km/h 5mph /  8km/h 99% 0.19in /  4.83mm 25 W/m2
12:24 47.7 °F /  8.7 °C 47.4 °F /  8.6 °C 29.85in /  1010.7hPa North 2.4mph /  3.9km/h 5mph /  8km/h 99% 0.19in /  4.83mm 29 W/m2
12:29 47.7 °F /  8.7 °C 47.4 °F /  8.6 °C 29.85in /  1010.7hPa NNE 1.3mph /  2.1km/h 4mph /  6.4km/h 99% 0.19in /  4.83mm 32 W/m2
12:34 47.8 °F /  8.8 °C 47.6 °F /  8.7 °C 29.85in /  1010.7hPa NNE 1.5mph /  2.4km/h 2mph /  3.2km/h 99% 0.20in /  5.08mm 43 W/m2
12:39 47.8 °F /  8.8 °C 47.6 °F /  8.7 °C 29.85in /  1010.7hPa NE 1.7mph /  2.7km/h 2mph /  3.2km/h 99% 0.12in /  3.05mm 82 W/m2
12:44 47.8 °F /  8.8 °C 47.6 °F /  8.7 °C 29.84in /  1010.4hPa ESE 2.2mph /  3.5km/h 2mph /  3.2km/h 99% 0.13in /  3.3mm 85 W/m2
12:49 48 °F /  8.9 °C 47.8 °F /  8.8 °C 29.85in /  1010.7hPa SSE 2.4mph /  3.9km/h 2mph /  3.2km/h 99% 0.13in /  3.3mm 71 W/m2
12:54 48 °F /  8.9 °C 47.8 °F /  8.8 °C 29.85in /  1010.7hPa SE 3mph /  4.8km/h 3mph /  4.8km/h 99% 0.13in /  3.3mm 69 W/m2
12:59 48.2 °F /  9 °C 47.9 °F /  8.8 °C 29.85in /  1010.7hPa ESE 3.3mph /  5.3km/h 3mph /  4.8km/h 99% 0.12in /  3.05mm 53 W/m2
13:04 48 °F /  8.9 °C 47.8 °F /  8.8 °C 29.85in /  1010.7hPa ESE 4.8mph /  7.7km/h 5mph /  8km/h 99% 0.11in /  2.79mm 45 W/m2
13:09 48 °F /  8.9 °C 47.8 °F /  8.8 °C 29.84in /  1010.4hPa SE 2.2mph /  3.5km/h 6mph /  9.7km/h 99% 0.10in /  2.54mm 39 W/m2
13:14 48 °F /  8.9 °C 47.8 °F /  8.8 °C 29.84in /  1010.4hPa SSE 3.7mph /  6km/h 3.1mph /  5km/h 99% 0.09in /  2.29mm 34 W/m2
13:19 48 °F /  8.9 °C 47.8 °F /  8.8 °C 29.84in /  1010.4hPa SSE 3.4mph /  5.5km/h 5mph /  8km/h 99% 0.10in /  2.54mm 34 W/m2
13:24 48 °F /  8.9 °C 47.8 °F /  8.8 °C 29.84in /  1010.4hPa ESE 3mph /  4.8km/h 5mph /  8km/h 99% 0.10in /  2.54mm 34 W/m2
13:29 48 °F /  8.9 °C 47.8 °F /  8.8 °C 29.84in /  1010.4hPa East 2.3mph /  3.7km/h 4mph /  6.4km/h 99% 0.10in /  2.54mm 35 W/m2
13:34 48 °F /  8.9 °C 47.8 °F /  8.8 °C 29.83in /  1010hPa NE 3.3mph /  5.3km/h 2.7mph /  4.3km/h 99% 0.11in /  2.79mm 32 W/m2
13:39 48 °F /  8.9 °C 47.8 °F /  8.8 °C 29.83in /  1010hPa NW 5.2mph /  8.4km/h 5mph /  8km/h 99% 0.11in /  2.79mm 35 W/m2
13:44 48.1 °F /  8.9 °C 47.8 °F /  8.8 °C 29.83in /  1010hPa NNW 4.6mph /  7.4km/h 7mph /  11.3km/h 99% 0.11in /  2.79mm 34 W/m2
13:49 48.3 °F /  9.1 °C 48 °F /  8.9 °C 29.83in /  1010hPa NNW 2.5mph /  4km/h 7mph /  11.3km/h 99% 0.11in /  2.79mm 33 W/m2
13:54 48.4 °F /  9.1 °C 48.1 °F /  8.9 °C 29.83in /  1010hPa NNW 3.5mph /  5.6km/h 3mph /  4.8km/h 99% 0.11in /  2.79mm 32 W/m2
13:59 48.6 °F /  9.2 °C 48.3 °F /  9.1 °C 29.83in /  1010hPa WNW 6.2mph /  10km/h 6mph /  9.7km/h 99% 0.12in /  3.05mm 32 W/m2
14:04 48.6 °F /  9.2 °C 48.3 °F /  9.1 °C 29.83in /  1010hPa WNW 4.2mph /  6.8km/h 7mph /  11.3km/h 99% 0.12in /  3.05mm 28 W/m2
14:09 48.6 °F /  9.2 °C 48.3 °F /  9.1 °C 29.83in /  1010hPa WNW 3.8mph /  6.1km/h 6mph /  9.7km/h 99% 0.12in /  3.05mm 29 W/m2
14:14 48.6 °F /  9.2 °C 48.3 °F /  9.1 °C 29.83in /  1010hPa West 2.9mph /  4.7km/h 5mph /  8km/h 99% 0.12in /  3.05mm 32 W/m2
14:19 48.6 °F /  9.2 °C 48.3 °F /  9.1 °C 29.83in /  1010hPa WSW 2.6mph /  4.2km/h 3mph /  4.8km/h 99% 0.11in /  2.79mm 36 W/m2
14:24 48.6 °F /  9.2 °C 48.4 °F /  9.1 °C 29.83in /  1010hPa SW 4.2mph /  6.8km/h 4mph /  6.4km/h 99% 0.10in /  2.54mm 35 W/m2
14:29 48.7 °F /  9.3 °C 48.5 °F /  9.2 °C 29.83in /  1010hPa WSW 5.4mph /  8.7km/h 6mph /  9.7km/h 99% 0.09in /  2.29mm 27 W/m2
14:34 48.7 °F /  9.3 °C 48.5 °F /  9.2 °C 29.83in /  1010hPa West 2.7mph /  4.3km/h 6mph /  9.7km/h 99% 0.08in /  2.03mm 24 W/m2
14:39 48.7 °F /  9.3 °C 48.5 °F /  9.2 °C 29.83in /  1010hPa WNW 4.2mph /  6.8km/h 4mph /  6.4km/h 99% 0.08in /  2.03mm 23 W/m2
14:44 48.8 °F /  9.3 °C 48.6 °F /  9.2 °C 29.83in /  1010hPa West 3.8mph /  6.1km/h 5mph /  8km/h 99% 0.07in /  1.78mm 20 W/m2
14:49 48.9 °F /  9.4 °C 48.7 °F /  9.3 °C 29.83in /  1010hPa WSW 3.4mph /  5.5km/h 5mph /  8km/h 99% 0.07in /  1.78mm 20 W/m2
14:54 48.9 °F /  9.4 °C 48.7 °F /  9.3 °C 29.83in /  1010hPa WSW 2.5mph /  4km/h 3mph /  4.8km/h 99% 0.07in /  1.78mm 19 W/m2
14:59 48.9 °F /  9.4 °C 48.7 °F /  9.3 °C 29.83in /  1010hPa SW 3.4mph /  5.5km/h 3mph /  4.8km/h 99% 0.07in /  1.78mm 15 W/m2
15:04 48.9 °F /  9.4 °C 48.7 °F /  9.3 °C 29.83in /  1010hPa WSW 3.6mph /  5.8km/h 3mph /  4.8km/h 99% 0.06in /  1.52mm 13 W/m2
15:09 48.9 °F /  9.4 °C 48.7 °F /  9.3 °C 29.83in /  1010hPa WSW 3.3mph /  5.3km/h 4mph /  6.4km/h 99% 0.06in /  1.52mm 12 W/m2
15:14 48.9 °F /  9.4 °C 48.7 °F /  9.3 °C 29.83in /  1010hPa WSW 2.8mph /  4.5km/h 3mph /  4.8km/h 99% 0.06in /  1.52mm 11 W/m2
15:19 48.9 °F /  9.4 °C 48.7 °F /  9.3 °C 29.83in /  1010hPa West 3.1mph /  5km/h 4mph /  6.4km/h 99% 0.07in /  1.78mm 9 W/m2
15:24 48.9 °F /  9.4 °C 48.7 °F /  9.3 °C 29.82in /  1009.7hPa NW 3mph /  4.8km/h 3mph /  4.8km/h 99% 0.07in /  1.78mm 6 W/m2
15:29 49 °F /  9.4 °C 48.7 °F /  9.3 °C 29.82in /  1009.7hPa North 2.4mph /  3.9km/h 3mph /  4.8km/h 99% 0.07in /  1.78mm 4 W/m2
15:34 49.1 °F /  9.5 °C 48.8 °F /  9.3 °C 29.82in /  1009.7hPa NNE 3.6mph /  5.8km/h 4.2mph /  6.8km/h 99% 0.07in /  1.78mm 3 W/m2
15:39 49.3 °F /  9.6 °C 49 °F /  9.4 °C 29.81in /  1009.4hPa East 5.8mph /  9.3km/h 7mph /  11.3km/h 99% 0.07in /  1.78mm 2 W/m2
15:44 49.9 °F /  9.9 °C 49.6 °F /  9.8 °C 29.81in /  1009.4hPa ESE 6.9mph /  11.1km/h 9mph /  14.5km/h 99% 0.07in /  1.78mm 1 W/m2
15:49 50.4 °F /  10.2 °C 50.1 °F /  10.1 °C 29.80in /  1009hPa ESE 5.3mph /  8.5km/h 8mph /  12.9km/h 99% 0.07in /  1.78mm 1 W/m2
15:54 50.3 °F /  10.2 °C 50 °F /  10 °C 29.80in /  1009hPa ENE 4.2mph /  6.8km/h 6mph /  9.7km/h 99% 0.06in /  1.52mm 1 W/m2
15:59 50.2 °F /  10.1 °C 49.9 °F /  9.9 °C 29.80in /  1009hPa NW 4mph /  6.4km/h 5mph /  8km/h 99% 0.06in /  1.52mm 0 W/m2
16:04 50.5 °F /  10.3 °C 50.2 °F /  10.1 °C 29.79in /  1008.7hPa NNW 2.7mph /  4.3km/h 5mph /  8km/h 99% 0.06in /  1.52mm 0 W/m2
16:09 50.7 °F /  10.4 °C 50.4 °F /  10.2 °C 29.80in /  1009hPa North 3.4mph /  5.5km/h 4.7mph /  7.6km/h 99% 0.05in /  1.27mm 0 W/m2
16:14 50.7 °F /  10.4 °C 50.4 °F /  10.2 °C 29.81in /  1009.4hPa WNW 7.4mph /  11.9km/h 7mph /  11.3km/h 99% 0.05in /  1.27mm 0 W/m2
16:19 50.6 °F /  10.3 °C 50.4 °F /  10.2 °C 29.81in /  1009.4hPa WNW 6.9mph /  11.1km/h 8mph /  12.9km/h 99% 0.04in /  1.02mm 0 W/m2
16:24 50.5 °F /  10.3 °C 50.3 °F /  10.2 °C 29.81in /  1009.4hPa NW 5.8mph /  9.3km/h 7mph /  11.3km/h 99% 0.03in /  0.76mm 0 W/m2
16:29 50.7 °F /  10.4 °C 50.4 °F /  10.2 °C 29.81in /  1009.4hPa NW 4.9mph /  7.9km/h 6mph /  9.7km/h 99% 0.03in /  0.76mm 0 W/m2
16:34 50.8 °F /  10.4 °C 50.5 °F /  10.3 °C 29.81in /  1009.4hPa NW 6.6mph /  10.6km/h 7mph /  11.3km/h 99% 0.02in /  0.51mm 0 W/m2
16:39 50.9 °F /  10.5 °C 50.6 °F /  10.3 °C 29.80in /  1009hPa NNW 4mph /  6.4km/h 7mph /  11.3km/h 99% 0.01in /  0.25mm 0 W/m2
16:44 50.9 °F /  10.5 °C 50.6 °F /  10.3 °C 29.81in /  1009.4hPa NNE 2.9mph /  4.7km/h 5mph /  8km/h 99% 0.01in /  0.25mm 0 W/m2
16:49 50.8 °F /  10.4 °C 50.5 °F /  10.3 °C 29.80in /  1009hPa ENE 2.2mph /  3.5km/h 3mph /  4.8km/h 99% 0.00in /  0mm 0 W/m2
16:54 50.6 °F /  10.3 °C 50.3 °F /  10.2 °C 29.80in /  1009hPa NE 2.3mph /  3.7km/h 3mph /  4.8km/h 99% 0.00in /  0mm 0 W/m2
16:59 50.4 °F /  10.2 °C 50.2 °F /  10.1 °C 29.80in /  1009hPa NNE 2.2mph /  3.5km/h 3mph /  4.8km/h 99% 0.00in /  0mm 0 W/m2
17:04 50.4 °F /  10.2 °C 50.1 °F /  10.1 °C 29.80in /  1009hPa North 3.6mph /  5.8km/h 4mph /  6.4km/h 99% 0.00in /  0mm 0 W/m2
17:09 50.3 °F /  10.2 °C 50 °F /  10 °C 29.79in /  1008.7hPa NNE 3.3mph /  5.3km/h 5mph /  8km/h 99% 0.00in /  0mm 0 W/m2
17:14 50.2 °F /  10.1 °C 49.9 °F /  9.9 °C 29.80in /  1009hPa NE 2.5mph /  4km/h 4mph /  6.4km/h 99% 0.00in /  0mm 0 W/m2
17:19 50.2 °F /  10.1 °C 49.9 °F /  9.9 °C 29.80in /  1009hPa North 3.8mph /  6.1km/h 4mph /  6.4km/h 99% 0.00in /  0mm 0 W/m2
17:24 50.2 °F /  10.1 °C 49.9 °F /  9.9 °C 29.80in /  1009hPa NNW 2.9mph /  4.7km/h 6mph /  9.7km/h 99% 0.00in /  0mm 0 W/m2
17:29 50.4 °F /  10.2 °C 50.2 °F /  10.1 °C 29.80in /  1009hPa North 2.9mph /  4.7km/h 4mph /  6.4km/h 99% 0.00in /  0mm 0 W/m2
17:34 50.5 °F /  10.3 °C 50.3 °F /  10.2 °C 29.80in /  1009hPa NNE 3.6mph /  5.8km/h 4mph /  6.4km/h 99% 0.00in /  0mm 0 W/m2
17:39 50.5 °F /  10.3 °C 50.3 °F /  10.2 °C 29.81in /  1009.4hPa NE 5.7mph /  9.2km/h 5mph /  8km/h 99% 0.00in /  0mm 0 W/m2
17:44 50.4 °F /  10.2 °C 50.2 °F /  10.1 °C 29.81in /  1009.4hPa NE 9.7mph /  15.6km/h 10mph /  16.1km/h 99% 0.00in /  0mm 0 W/m2
17:49 50 °F /  10 °C 49.8 °F /  9.9 °C 29.81in /  1009.4hPa NNE 8.9mph /  14.3km/h 11mph /  17.7km/h 99% 0.00in /  0mm 0 W/m2
17:54 49.7 °F /  9.8 °C 49.5 °F /  9.7 °C 29.81in /  1009.4hPa NNE 10.5mph /  16.9km/h 10.1mph /  16.3km/h 99% 0.00in /  0mm 0 W/m2
17:59 49.4 °F /  9.7 °C 49.1 °F /  9.5 °C 29.81in /  1009.4hPa NNE 11.6mph /  18.7km/h 13mph /  20.9km/h 99% 0.00in /  0mm 0 W/m2
18:04 49.2 °F /  9.6 °C 48.9 °F /  9.4 °C 29.81in /  1009.4hPa NNE 11.2mph /  18km/h 13mph /  20.9km/h 99% 0.00in /  0mm 0 W/m2
18:09 49 °F /  9.4 °C 48.7 °F /  9.3 °C 29.80in /  1009hPa NNE 11.1mph /  17.9km/h 12mph /  19.3km/h 99% 0.00in /  0mm 0 W/m2
18:14 48.8 °F /  9.3 °C 48.7 °F /  9.3 °C 29.80in /  1009hPa NNE 12.1mph /  19.5km/h 13mph /  20.9km/h 99% 0.00in /  0mm 0 W/m2
18:19 48.7 °F /  9.3 °C 48.5 °F /  9.2 °C 29.80in /  1009hPa NNE 12mph /  19.3km/h 13mph /  20.9km/h 99% 0.00in /  0mm 0 W/m2
18:24 48.6 °F /  9.2 °C 48.4 °F /  9.1 °C 29.80in /  1009hPa NNE 11.1mph /  17.9km/h 14mph /  22.5km/h 99% 0.00in /  0mm 0 W/m2
18:29 48.6 °F /  9.2 °C 48.3 °F /  9.1 °C 29.79in /  1008.7hPa NNE 10.2mph /  16.4km/h 14mph /  22.5km/h 99% 0.00in /  0mm 0 W/m2
18:34 48.6 °F /  9.2 °C 48.3 °F /  9.1 °C 29.79in /  1008.7hPa NNE 9.6mph /  15.4km/h 12mph /  19.3km/h 99% 0.00in /  0mm 0 W/m2
18:39 48.6 °F /  9.2 °C 48.3 °F /  9.1 °C 29.79in /  1008.7hPa NNE 8.3mph /  13.4km/h 12mph /  19.3km/h 99% 0.00in /  0mm 0 W/m2
18:44 48.6 °F /  9.2 °C 48.3 °F /  9.1 °C 29.79in /  1008.7hPa NNE 8.7mph /  14km/h 9mph /  14.5km/h 99% 0.00in /  0mm 0 W/m2
18:49 48.4 °F /  9.1 °C 48.1 °F /  8.9 °C 29.78in /  1008.4hPa NNE 8.3mph /  13.4km/h 10mph /  16.1km/h 99% 0.00in /  0mm 0 W/m2
18:54 48.3 °F /  9.1 °C 48 °F /  8.9 °C 29.78in /  1008.4hPa NNE 7.2mph /  11.6km/h 10mph /  16.1km/h 99% 0.00in /  0mm 0 W/m2
18:59 48.2 °F /  9 °C 47.9 °F /  8.8 °C 29.78in /  1008.4hPa NNE 6.9mph /  11.1km/h 8mph /  12.9km/h 99% 0.00in /  0mm 0 W/m2
19:04 48.2 °F /  9 °C 47.9 °F /  8.8 °C 29.78in /  1008.4hPa North 5.6mph /  9km/h 8mph /  12.9km/h 99% 0.00in /  0mm 0 W/m2
19:09 48.4 °F /  9.1 °C 48.1 °F /  8.9 °C 29.78in /  1008.4hPa NW 5.3mph /  8.5km/h 6mph /  9.7km/h 99% 0.00in /  0mm 0 W/m2
19:14 48.4 °F /  9.1 °C 48.1 °F /  8.9 °C 29.78in /  1008.4hPa WNW 2.6mph /  4.2km/h 6mph /  9.7km/h 99% 0.01in /  0.25mm 0 W/m2
19:19 48.4 °F /  9.1 °C 48.1 °F /  8.9 °C 29.78in /  1008.4hPa NNW 1.6mph /  2.6km/h 2mph /  3.2km/h 99% 0.01in /  0.25mm 0 W/m2
19:24 48.4 °F /  9.1 °C 48.1 °F /  8.9 °C 29.78in /  1008.4hPa NE 2.9mph /  4.7km/h 2.9mph /  4.7km/h 99% 0.01in /  0.25mm 0 W/m2
19:29 48.4 °F /  9.1 °C 48.1 °F /  8.9 °C 29.78in /  1008.4hPa NE 4mph /  6.4km/h 4mph /  6.4km/h 99% 0.01in /  0.25mm 0 W/m2
19:34 48.4 °F /  9.1 °C 48.1 °F /  8.9 °C 29.78in /  1008.4hPa NNE 6.1mph /  9.8km/h 6mph /  9.7km/h 99% 0.01in /  0.25mm 0 W/m2
19:39 48.4 °F /  9.1 °C 48.1 °F /  8.9 °C 29.79in /  1008.7hPa NNE 5.7mph /  9.2km/h 7mph /  11.3km/h 99% 0.01in /  0.25mm 0 W/m2
19:44 48.3 °F /  9.1 °C 48 °F /  8.9 °C 29.79in /  1008.7hPa NNE 5.2mph /  8.4km/h 7mph /  11.3km/h 99% 0.01in /  0.25mm 0 W/m2
19:47 48.3 °F /  9.1 °C 48 °F /  8.9 °C 29.79in /  1008.7hPa NNE 5.1mph /  8.2km/h 6mph /  9.7km/h 99% 0.01in /  0.25mm 0 W/m2
19:55 48.2 °F /  9 °C 47.9 °F /  8.8 °C 29.79in /  1008.7hPa NE 3mph /  4.8km/h 9mph /  14.5km/h 99% 0.00in /  0mm 0 W/m2
20:04 48.1 °F /  8.9 °C 47.9 °F /  8.8 °C 29.79in /  1008.7hPa NE 6.1mph /  9.8km/h 4mph /  6.4km/h 99% 0.02in /  0.51mm 0 W/m2
20:09 48.1 °F /  8.9 °C 47.9 °F /  8.8 °C 29.80in /  1009hPa NE 6.7mph /  10.8km/h 8mph /  12.9km/h 99% 0.02in /  0.51mm 0 W/m2
20:14 48 °F /  8.9 °C 47.8 °F /  8.8 °C 29.80in /  1009hPa NNE 6.6mph /  10.6km/h 8mph /  12.9km/h 99% 0.02in /  0.51mm 0 W/m2
20:19 48 °F /  8.9 °C 47.8 °F /  8.8 °C 29.80in /  1009hPa NNE 7.5mph /  12.1km/h 8mph /  12.9km/h 99% 0.03in /  0.76mm 0 W/m2
20:24 48 °F /  8.9 °C 47.8 °F /  8.8 °C 29.80in /  1009hPa NNE 7.7mph /  12.4km/h 8mph /  12.9km/h 99% 0.04in /  1.02mm 0 W/m2
20:29 48 °F /  8.9 °C 47.8 °F /  8.8 °C 29.80in /  1009hPa NNE 7.5mph /  12.1km/h 8mph /  12.9km/h 99% 0.06in /  1.52mm 0 W/m2
20:34 48 °F /  8.9 °C 47.8 °F /  8.8 °C 29.81in /  1009.4hPa NNE 7mph /  11.3km/h 8mph /  12.9km/h 99% 0.07in /  1.78mm 0 W/m2
20:39 48 °F /  8.9 °C 47.8 °F /  8.8 °C 29.81in /  1009.4hPa NE 7.7mph /  12.4km/h 8mph /  12.9km/h 99% 0.09in /  2.29mm 0 W/m2
20:44 48 °F /  8.9 °C 47.8 °F /  8.8 °C 29.81in /  1009.4hPa NE 5.8mph /  9.3km/h 8mph /  12.9km/h 99% 0.09in /  2.29mm 0 W/m2
20:49 48 °F /  8.9 °C 47.8 °F /  8.8 °C 29.81in /  1009.4hPa NE 6.2mph /  10km/h 7mph /  11.3km/h 99% 0.10in /  2.54mm 0 W/m2
20:54 48 °F /  8.9 °C 47.8 °F /  8.8 °C 29.81in /  1009.4hPa NE 5.2mph /  8.4km/h 7mph /  11.3km/h 99% 0.10in /  2.54mm 0 W/m2
20:59 47.9 °F /  8.8 °C 47.7 °F /  8.7 °C 29.81in /  1009.4hPa NNE 5mph /  8km/h 6mph /  9.7km/h 99% 0.10in /  2.54mm 0 W/m2
21:04 47.8 °F /  8.8 °C 47.6 °F /  8.7 °C 29.81in /  1009.4hPa NNE 6.5mph /  10.5km/h 6mph /  9.7km/h 99% 0.10in /  2.54mm 0 W/m2
21:09 47.8 °F /  8.8 °C 47.6 °F /  8.7 °C 29.81in /  1009.4hPa NNE 5.4mph /  8.7km/h 8mph /  12.9km/h 99% 0.10in /  2.54mm 0 W/m2
21:14 47.8 °F /  8.8 °C 47.6 °F /  8.7 °C 29.81in /  1009.4hPa NNE 5.2mph /  8.4km/h 6mph /  9.7km/h 99% 0.10in /  2.54mm 0 W/m2
21:19 47.8 °F /  8.8 °C 47.6 °F /  8.7 °C 29.80in /  1009hPa NNE 3.7mph /  6km/h 6mph /  9.7km/h 99% 0.10in /  2.54mm 0 W/m2
21:24 47.8 °F /  8.8 °C 47.6 °F /  8.7 °C 29.81in /  1009.4hPa NNE 2.9mph /  4.7km/h 5mph /  8km/h 99% 0.10in /  2.54mm 0 W/m2
21:29 47.8 °F /  8.8 °C 47.5 °F /  8.6 °C 29.80in /  1009hPa NNE 2.7mph /  4.3km/h 3mph /  4.8km/h 99% 0.09in /  2.29mm 0 W/m2
21:34 47.7 °F /  8.7 °C 47.4 °F /  8.6 °C 29.80in /  1009hPa NNE 2.1mph /  3.4km/h 4mph /  6.4km/h 99% 0.08in /  2.03mm 0 W/m2
21:39 47.7 °F /  8.7 °C 47.4 °F /  8.6 °C 29.80in /  1009hPa NNE 2.1mph /  3.4km/h 2mph /  3.2km/h 99% 0.08in /  2.03mm 0 W/m2
21:44 47.7 °F /  8.7 °C 47.4 °F /  8.6 °C 29.80in /  1009hPa NNE 3.3mph /  5.3km/h 2.5mph /  4km/h 99% 0.07in /  1.78mm 0 W/m2
21:49 47.7 °F /  8.7 °C 47.4 °F /  8.6 °C 29.80in /  1009hPa NNE 2.8mph /  4.5km/h 4mph /  6.4km/h 99% 0.07in /  1.78mm 0 W/m2
21:54 47.7 °F /  8.7 °C 47.4 °F /  8.6 °C 29.79in /  1008.7hPa NNE 2.2mph /  3.5km/h 3mph /  4.8km/h 99% 0.06in /  1.52mm 0 W/m2
21:59 47.7 °F /  8.7 °C 47.4 °F /  8.6 °C 29.79in /  1008.7hPa NNE 2.1mph /  3.4km/h 2mph /  3.2km/h 99% 0.07in /  1.78mm 0 W/m2
22:04 47.7 °F /  8.7 °C 47.4 °F /  8.6 °C 29.79in /  1008.7hPa North 2.9mph /  4.7km/h 2.9mph /  4.7km/h 99% 0.07in /  1.78mm 0 W/m2
22:09 47.7 °F /  8.7 °C 47.4 °F /  8.6 °C 29.79in /  1008.7hPa WNW 3.6mph /  5.8km/h 5mph /  8km/h 99% 0.09in /  2.29mm 0 W/m2
22:14 47.5 °F /  8.6 °C 47.2 °F /  8.4 °C 29.79in /  1008.7hPa West 3.4mph /  5.5km/h 4mph /  6.4km/h 99% 0.09in /  2.29mm 0 W/m2
22:19 47.2 °F /  8.4 °C 47 °F /  8.3 °C 29.78in /  1008.4hPa WNW 3.7mph /  6km/h 4mph /  6.4km/h 99% 0.09in /  2.29mm 0 W/m2
22:24 46.9 °F /  8.3 °C 46.7 °F /  8.2 °C 29.78in /  1008.4hPa WNW 4.3mph /  6.9km/h 5mph /  8km/h 99% 0.08in /  2.03mm 0 W/m2
22:29 46.9 °F /  8.3 °C 46.6 °F /  8.1 °C 29.78in /  1008.4hPa West 3.8mph /  6.1km/h 6mph /  9.7km/h 99% 0.08in /  2.03mm 0 W/m2
22:34 46.8 °F /  8.2 °C 46.5 °F /  8.1 °C 29.78in /  1008.4hPa West 3mph /  4.8km/h 5mph /  8km/h 99% 0.07in /  1.78mm 0 W/m2
22:39 46.7 °F /  8.2 °C 46.4 °F /  8 °C 29.78in /  1008.4hPa WNW 2.8mph /  4.5km/h 4mph /  6.4km/h 99% 0.07in /  1.78mm 0 W/m2
22:44 46.6 °F /  8.1 °C 46.3 °F /  7.9 °C 29.77in /  1008hPa NW 2.2mph /  3.5km/h 3mph /  4.8km/h 99% 0.06in /  1.52mm 0 W/m2
22:49 46.6 °F /  8.1 °C 46.3 °F /  7.9 °C 29.77in /  1008hPa North 2.2mph /  3.5km/h 3mph /  4.8km/h 99% 0.05in /  1.27mm 0 W/m2
22:54 46.5 °F /  8.1 °C 46.2 °F /  7.9 °C 29.77in /  1008hPa North 2.4mph /  3.9km/h 3mph /  4.8km/h 99% 0.05in /  1.27mm 0 W/m2
22:59 46.4 °F /  8 °C 46.1 °F /  7.8 °C 29.77in /  1008hPa North 0.9mph /  1.4km/h 3mph /  4.8km/h 99% 0.04in /  1.02mm 0 W/m2
23:04 46.4 °F /  8 °C 46.1 °F /  7.8 °C 29.77in /  1008hPa North 0.5mph /  0.8km/h 2mph /  3.2km/h 99% 0.04in /  1.02mm 0 W/m2
23:09 46.4 °F /  8 °C 46.1 °F /  7.8 °C 29.76in /  1007.7hPa WSW 1.3mph /  2.1km/h 1.6mph /  2.6km/h 99% 0.04in /  1.02mm 0 W/m2
23:14 46.4 °F /  8 °C 46.1 °F /  7.8 °C 29.76in /  1007.7hPa WNW 2.1mph /  3.4km/h 3mph /  4.8km/h 99% 0.03in /  0.76mm 0 W/m2
23:19 46.3 °F /  7.9 °C 46 °F /  7.8 °C 29.76in /  1007.7hPa WNW 2.5mph /  4km/h 2mph /  3.2km/h 99% 0.02in /  0.51mm 0 W/m2
23:24 46.2 °F /  7.9 °C 46 °F /  7.8 °C 29.76in /  1007.7hPa SW 3.7mph /  6km/h 3mph /  4.8km/h 99% 0.03in /  0.76mm 0 W/m2
23:29 46.2 °F /  7.9 °C 46 °F /  7.8 °C 29.76in /  1007.7hPa WSW 4.2mph /  6.8km/h 5mph /  8km/h 99% 0.05in /  1.27mm 0 W/m2
23:34 46.1 °F /  7.8 °C 45.9 °F /  7.7 °C 29.75in /  1007.3hPa WNW 4.7mph /  7.6km/h 5mph /  8km/h 99% 0.06in /  1.52mm 0 W/m2
23:39 46 °F /  7.8 °C 45.8 °F /  7.7 °C 29.75in /  1007.3hPa WNW 4.3mph /  6.9km/h 6mph /  9.7km/h 99% 0.07in /  1.78mm 0 W/m2
23:44 45.9 °F /  7.7 °C 45.6 °F /  7.6 °C 29.75in /  1007.3hPa WNW 4.2mph /  6.8km/h 5mph /  8km/h 99% 0.08in /  2.03mm 0 W/m2
23:49 45.8 °F /  7.7 °C 45.5 °F /  7.5 °C 29.75in /  1007.3hPa WNW 4.4mph /  7.1km/h 5mph /  8km/h 99% 0.08in /  2.03mm 0 W/m2
23:54 45.7 °F /  7.6 °C 45.4 °F /  7.4 °C 29.74in /  1007hPa West 4.8mph /  7.7km/h 5mph /  8km/h 99% 0.09in /  2.29mm 0 W/m2
23:59 45.7 °F /  7.6 °C 45.4 °F /  7.4 °C 29.74in /  1007hPa West 5.5mph /  8.9km/h 6mph /  9.7km/h 99% 0.09in /  2.29mm 0 W/m2
Knjazevac, Serbia
Compliments of Weather Underground - 4 mb